Time;durP1;ratioP1;P1;durP2;ratioP2;P2;SDS_P1;SDS_P2;PMS_P1;PMS_P2;Temp;Humidity;BMP_temperature;BMP_pressure;BME280_temperature;BME280_humidity;BME280_pressure;Samples;Min_cycle;Max_cycle;Signal;HPM_P1;HPM_P2
2021/05/11 00:00:38;;;;;;;2.87;1.90;;;16.00;45.10;;;;;;5058266;28;20393;-75
2021/05/11 00:03:04;;;;;;;2.70;1.80;;;16.00;45.30;;;;;;5059420;28;20389;-76
2021/05/11 00:05:31;;;;;;;3.90;1.80;;;15.90;45.60;;;;;;5058947;28;21026;-77
2021/05/11 00:07:57;;;;;;;2.50;1.80;;;15.90;45.60;;;;;;5055858;28;20755;-77
2021/05/11 00:10:25;;;;;;;3.55;2.20;;;15.90;46.10;;;;;;5053113;28;20378;-76
2021/05/11 00:12:50;;;;;;;3.70;2.20;;;16.00;46.30;;;;;;5053045;28;20384;-77
2021/05/11 00:15:17;;;;;;;3.20;1.90;;;16.00;46.70;;;;;;5054193;28;20512;-76
2021/05/11 00:17:44;;;;;;;3.30;1.80;;;16.00;46.00;;;;;;5054193;28;20385;-77
2021/05/11 00:20:11;;;;;;;3.90;2.10;;;16.00;46.70;;;;;;5053682;28;20439;-76
2021/05/11 00:22:36;;;;;;;3.90;2.10;;;16.00;47.20;;;;;;5053087;28;20413;-75
2021/05/11 00:25:02;;;;;;;2.80;2.00;;;16.00;48.50;;;;;;5052742;28;20417;-75
2021/05/11 00:27:28;;;;;;;3.13;1.93;;;16.00;48.50;;;;;;5052408;28;20847;-76
2021/05/11 00:29:53;;;;;;;2.57;2.37;;;16.00;49.90;;;;;;5051474;28;20893;-76
2021/05/11 00:32:19;;;;;;;4.30;2.30;;;16.00;50.30;;;;;;5052383;28;20889;-76
2021/05/11 00:34:44;;;;;;;3.53;2.22;;;16.00;51.30;;;;;;5052128;28;20884;-76
2021/05/11 00:37:10;;;;;;;3.07;2.10;;;16.00;52.40;;;;;;5052244;28;20389;-77
2021/05/11 00:39:35;;;;;;;4.10;2.07;;;16.00;54.80;;;;;;5052085;28;20400;-76
2021/05/11 00:42:01;;;;;;;2.50;2.13;;;16.00;55.70;;;;;;5052168;28;20451;-76
2021/05/11 00:44:28;;;;;;;2.65;2.45;;;16.00;57.00;;;;;;5065652;28;20391;-75
2021/05/11 00:46:59;;;;;;;5.10;2.40;;;15.90;61.00;;;;;;5072220;28;20414;-76
2021/05/11 00:49:26;;;;;;;2.50;2.30;;;15.80;61.70;;;;;;5073025;28;20379;-76
2021/05/11 00:51:53;;;;;;;2.70;2.30;;;15.90;62.50;;;;;;5072502;28;20396;-76
2021/05/11 00:54:19;;;;;;;3.53;2.85;;;15.80;63.80;;;;;;5071995;28;20375;-76
2021/05/11 00:56:46;;;;;;;3.47;2.80;;;15.70;65.70;;;;;;5070925;28;20425;-77
2021/05/11 00:59:16;;;;;;;3.15;2.40;;;15.60;68.70;;;;;;5052418;28;20397;-76
2021/05/11 01:01:42;;;;;;;4.17;2.40;;;15.50;71.10;;;;;;5051951;28;20387;-76
2021/05/11 01:04:08;;;;;;;3.17;2.80;;;15.50;71.60;;;;;;5051709;28;20389;-75
2021/05/11 01:06:33;;;;;;;3.50;3.20;;;15.50;74.70;;;;;;5052188;28;20405;-75
2021/05/11 01:08:59;;;;;;;6.18;3.70;;;15.50;75.80;;;;;;5051764;28;20397;-75
2021/05/11 01:11:25;;;;;;;4.95;4.45;;;15.50;77.20;;;;;;5051303;28;20468;-75
2021/05/11 01:13:51;;;;;;;4.85;4.30;;;15.50;79.50;;;;;;5051511;28;20381;-76
2021/05/11 01:16:16;;;;;;;7.18;4.85;;;15.40;81.40;;;;;;5050241;28;20381;-76
2021/05/11 01:18:42;;;;;;;6.53;4.85;;;15.40;82.70;;;;;;5051629;28;20491;-75
2021/05/11 01:24:02;;;;;;;8.18;5.50;;;15.20;87.30;;;;;;5051579;28;20392;-76
2021/05/11 01:29:19;;;;;;;5.40;4.90;;;15.30;91.70;;;;;;5051498;28;20386;-74
2021/05/11 01:47:52;;;;;;;9.35;7.60;;;15.10;98.20;;;;;;5030956;28;20505;-76
2021/05/11 01:50:23;;;;;;;9.93;7.65;;;15.10;99.50;;;;;;5030909;28;20395;-76
2021/05/11 01:53:01;;;;;;;9.53;7.57;;;15.10;99.90;;;;;;5038611;28;20850;-76
2021/05/11 01:55:41;;;;;;;10.63;8.70;;;15.00;99.90;;;;;;5050649;28;20945;-77
2021/05/11 02:22:42;;;;;;;11.05;9.32;;;14.90;99.90;;;;;;5050730;28;20419;-76
2021/05/11 02:25:08;;;;;;;10.65;9.55;;;14.90;99.90;;;;;;5051095;28;20389;-77
2021/05/11 02:27:36;;;;;;;10.35;9.32;;;14.90;99.90;;;;;;5051014;28;20894;-76
2021/05/11 02:30:03;;;;;;;10.83;9.40;;;15.00;99.90;;;;;;5050685;28;20799;-77
2021/05/11 02:32:29;;;;;;;13.00;9.95;;;14.90;99.90;;;;;;5051539;28;20413;-77
2021/05/11 02:34:54;;;;;;;12.10;10.32;;;14.90;99.90;;;;;;5051370;28;20940;-77
2021/05/11 02:37:20;;;;;;;12.73;10.60;;;14.90;99.90;;;;;;5051056;28;20480;-76
2021/05/11 02:39:46;;;;;;;11.47;10.27;;;14.80;99.90;;;;;;5050661;28;20777;-76
2021/05/11 02:42:12;;;;;;;12.00;10.50;;;14.80;99.90;;;;;;5050655;28;20823;-76
2021/05/11 02:44:46;;;;;;;12.20;11.00;;;14.90;99.90;;;;;;5050139;28;20464;-75
2021/05/11 02:47:12;;;;;;;11.60;10.40;;;14.90;99.90;;;;;;5050228;28;20405;-76
2021/05/11 02:49:45;;;;;;;12.43;11.13;;;14.80;99.90;;;;;;5050704;28;20746;-75
2021/05/11 02:52:11;;;;;;;14.70;12.40;;;14.80;99.90;;;;;;5050446;28;20443;-75
2021/05/11 02:54:37;;;;;;;12.60;11.30;;;14.80;99.90;;;;;;5053768;28;20794;-75
2021/05/11 02:57:04;;;;;;;13.70;12.20;;;14.80;99.90;;;;;;5053927;28;20377;-76
2021/05/11 02:59:29;;;;;;;14.43;12.93;;;14.80;99.90;;;;;;5053767;28;20411;-75
2021/05/11 03:01:55;;;;;;;13.88;12.48;;;14.80;99.90;;;;;;5054318;28;20480;-75
2021/05/11 03:04:21;;;;;;;16.33;12.90;;;14.80;99.90;;;;;;5069205;28;20439;-75
2021/05/11 03:06:46;;;;;;;14.10;12.43;;;14.70;99.90;;;;;;5053797;28;20440;-76
2021/05/11 03:09:13;;;;;;;14.43;12.67;;;14.60;99.90;;;;;;5053779;28;20858;-75
2021/05/11 03:11:38;;;;;;;15.40;13.00;;;14.60;99.90;;;;;;5054045;28;20439;-76
2021/05/11 03:14:04;;;;;;;15.80;13.63;;;14.70;99.90;;;;;;5054080;28;20373;-74
2021/05/11 03:16:32;;;;;;;15.83;13.30;;;14.60;99.90;;;;;;5058637;28;20401;-75
2021/05/11 03:18:58;;;;;;;15.23;13.63;;;14.60;99.90;;;;;;5053658;28;20777;-76
2021/05/11 03:21:23;;;;;;;16.45;14.30;;;14.60;99.90;;;;;;5053487;28;20389;-75
2021/05/11 03:23:49;;;;;;;16.07;14.37;;;14.70;99.90;;;;;;5065828;28;20435;-74
2021/05/11 03:26:14;;;;;;;17.30;13.80;;;14.80;99.90;;;;;;5069809;28;20465;-74
2021/05/11 03:28:40;;;;;;;17.05;15.20;;;14.70;99.90;;;;;;5061481;28;20397;-75
2021/05/11 03:31:06;;;;;;;16.60;14.10;;;14.70;99.90;;;;;;5066728;28;20383;-75
2021/05/11 03:33:31;;;;;;;16.60;14.67;;;14.80;99.90;;;;;;5073566;28;20390;-76
2021/05/11 03:35:57;;;;;;;18.27;15.80;;;14.70;99.90;;;;;;5055658;28;20432;-75
2021/05/11 03:38:22;;;;;;;18.73;14.73;;;14.70;99.90;;;;;;5053704;28;20381;-75
2021/05/11 03:40:48;;;;;;;15.10;11.83;;;14.60;99.90;;;;;;5053645;28;20369;-75
2021/05/11 03:43:18;;;;;;;12.03;10.13;;;14.70;99.90;;;;;;5053311;28;20893;-75
2021/05/11 03:45:46;;;;;;;12.02;9.00;;;14.70;99.90;;;;;;5069084;28;20487;-76
2021/05/11 03:48:11;;;;;;;10.07;7.68;;;14.70;99.90;;;;;;5053405;28;20389;-76
2021/05/11 03:50:37;;;;;;;10.82;7.40;;;14.70;99.90;;;;;;5053705;28;20393;-75
2021/05/11 03:53:03;;;;;;;7.87;7.07;;;14.70;99.90;;;;;;5052791;28;20386;-76
2021/05/11 03:55:29;;;;;;;13.50;8.00;;;14.70;99.80;;;;;;5053402;28;20472;-77
2021/05/11 03:57:54;;;;;;;9.73;7.60;;;14.60;99.90;;;;;;5053515;28;20480;-76
2021/05/11 04:00:20;;;;;;;11.43;7.73;;;14.60;99.90;;;;;;5052732;28;20381;-76
2021/05/11 04:02:46;;;;;;;10.80;8.17;;;14.60;99.90;;;;;;5052820;28;20400;-76
2021/05/11 04:05:14;;;;;;;12.20;9.23;;;14.50;99.90;;;;;;5052830;28;20397;-74
2021/05/11 04:07:41;;;;;;;11.63;9.52;;;14.60;99.90;;;;;;5053464;28;20405;-76
2021/05/11 04:10:19;;;;;;;14.90;10.80;;;14.60;99.90;;;;;;5053482;28;20461;-76
2021/05/11 04:13:08;;;;;;;14.27;11.25;;;14.50;99.90;;;;;;5053310;28;20392;-77
2021/05/11 04:18:19;;;;;;;16.63;12.30;;;14.60;99.90;;;;;;5052297;28;20401;-74
2021/05/11 04:20:46;;;;;;;17.27;12.47;;;14.60;99.90;;;;;;5052720;28;20936;-76
2021/05/11 04:23:12;;;;;;;17.02;12.32;;;14.60;99.90;;;;;;5052459;28;20969;-76
2021/05/11 04:25:37;;;;;;;17.60;12.10;;;14.70;99.90;;;;;;5065804;28;20471;-77
2021/05/11 04:28:03;;;;;;;16.42;12.45;;;14.60;99.90;;;;;;5069346;28;20411;-75
2021/05/11 04:30:29;;;;;;;17.80;12.75;;;14.70;99.90;;;;;;5052777;28;20408;-73
2021/05/11 04:32:55;;;;;;;14.07;11.68;;;14.70;99.90;;;;;;5052227;28;20381;-74
2021/05/11 04:35:20;;;;;;;16.95;11.77;;;14.70;99.90;;;;;;5052351;28;20882;-75
2021/05/11 04:37:46;;;;;;;17.63;11.30;;;14.70;99.90;;;;;;5052720;28;20393;-73
2021/05/11 04:40:12;;;;;;;19.23;11.90;;;14.80;99.90;;;;;;5052343;28;20385;-74
2021/05/11 04:42:41;;;;;;;14.90;11.32;;;14.90;99.90;;;;;;5052355;28;20407;-74
2021/05/11 04:45:07;;;;;;;14.95;11.50;;;15.00;99.90;;;;;;5060350;28;20387;-72
2021/05/11 04:50:31;;;;;;;14.00;10.63;;;14.90;99.90;;;;;;5028349;28;20398;-73
2021/05/11 04:52:57;;;;;;;14.98;10.35;;;15.00;99.90;;;;;;5052156;28;20885;-74
2021/05/11 04:55:23;;;;;;;14.52;9.88;;;15.10;99.90;;;;;;5053107;28;20866;-73
2021/05/11 04:57:49;;;;;;;10.35;9.00;;;15.00;98.00;;;;;;5054360;28;20476;-75
2021/05/11 05:00:16;;;;;;;12.48;9.07;;;15.00;97.80;;;;;;5053816;28;20385;-74
2021/05/11 05:02:45;;;;;;;13.70;8.93;;;14.90;99.30;;;;;;5052348;28;20904;-73
2021/05/11 05:05:12;;;;;;;14.43;9.47;;;14.90;99.90;;;;;;5050441;28;20416;-75
2021/05/11 05:07:39;;;;;;;16.85;9.57;;;14.90;99.90;;;;;;5051805;28;20428;-74
2021/05/11 05:10:05;;;;;;;20.20;10.43;;;14.90;99.90;;;;;;5050869;28;20389;-74
2021/05/11 05:12:31;;;;;;;16.20;10.65;;;15.00;99.90;;;;;;5051693;28;20886;-74
2021/05/11 05:14:56;;;;;;;11.85;9.32;;;15.00;99.90;;;;;;5051453;28;20412;-73
2021/05/11 05:17:22;;;;;;;14.38;8.70;;;15.20;98.90;;;;;;5051115;28;20385;-73
2021/05/11 05:19:48;;;;;;;12.15;9.43;;;15.20;97.70;;;;;;5051142;28;20865;-73
2021/05/11 05:22:14;;;;;;;13.95;9.40;;;15.20;97.60;;;;;;5051382;28;20476;-74
2021/05/11 05:24:52;;;;;;;16.05;8.13;;;15.20;95.30;;;;;;5068719;28;20454;-74
2021/05/11 05:27:20;;;;;;;13.55;8.93;;;15.20;94.40;;;;;;5070433;28;20403;-74
2021/05/11 05:29:46;;;;;;;14.13;8.43;;;15.20;94.00;;;;;;5053914;28;20440;-74
2021/05/11 05:32:12;;;;;;;14.73;9.60;;;15.10;94.40;;;;;;5050896;28;20789;-74
2021/05/11 05:34:38;;;;;;;14.20;9.40;;;15.10;95.20;;;;;;5051267;28;20397;-73
2021/05/11 05:37:03;;;;;;;16.25;10.60;;;15.20;96.30;;;;;;5051269;28;20396;-73
2021/05/11 05:39:50;;;;;;;13.85;9.45;;;15.20;97.20;;;;;;5049369;28;21193;-73
2021/05/11 05:42:15;;;;;;;17.47;10.27;;;15.30;95.70;;;;;;5050913;28;20377;-74
2021/05/11 05:44:41;;;;;;;15.73;10.07;;;15.40;94.00;;;;;;5050854;28;20401;-73
2021/05/11 05:47:07;;;;;;;13.27;10.05;;;15.50;94.20;;;;;;5050264;28;20435;-74
2021/05/11 05:49:40;;;;;;;15.38;10.35;;;15.60;93.40;;;;;;5050880;28;20439;-74
2021/05/11 05:52:07;;;;;;;16.60;11.55;;;15.70;92.20;;;;;;5050731;28;20512;-73
2021/05/11 05:54:32;;;;;;;14.60;11.57;;;15.90;90.70;;;;;;5050755;28;20747;-74
2021/05/11 05:56:58;;;;;;;13.25;10.70;;;16.00;88.70;;;;;;5050799;28;20381;-74
2021/05/11 05:59:23;;;;;;;13.73;10.48;;;16.20;87.70;;;;;;5051056;28;20454;-75
2021/05/11 06:01:52;;;;;;;17.60;11.23;;;16.30;84.80;;;;;;5050253;28;20476;-75
2021/05/11 06:04:21;;;;;;;18.42;10.82;;;16.40;82.10;;;;;;5050264;28;20393;-75
2021/05/11 06:06:48;;;;;;;14.90;10.37;;;16.40;81.80;;;;;;5049523;28;20770;-73
2021/05/11 06:09:22;;;;;;;14.73;9.77;;;16.50;80.50;;;;;;5050269;28;20870;-73
2021/05/11 06:11:55;;;;;;;11.13;8.43;;;16.60;78.50;;;;;;5051496;28;20394;-75
2021/05/11 06:19:28;;;;;;;12.50;8.47;;;16.80;75.60;;;;;;5050811;28;20852;-75
2021/05/11 06:21:54;;;;;;;11.00;8.63;;;17.10;70.00;;;;;;5051304;28;20386;-74
2021/05/11 06:24:20;;;;;;;9.70;6.67;;;17.30;67.30;;;;;;5051418;28;20451;-75
2021/05/11 06:26:46;;;;;;;11.13;6.88;;;17.60;61.90;;;;;;5050648;28;20758;-75
2021/05/11 06:29:17;;;;;;;10.95;6.25;;;17.70;62.50;;;;;;5053952;28;20416;-73
2021/05/11 06:31:42;;;;;;;10.80;5.80;;;17.90;56.70;;;;;;5054670;28;20401;-73
2021/05/11 06:34:10;;;;;;;10.67;5.63;;;18.00;56.20;;;;;;5066624;28;20392;-75
2021/05/11 06:36:35;;;;;;;9.40;6.30;;;18.20;56.10;;;;;;5071018;28;20847;-77
2021/05/11 06:39:05;;;;;;;10.70;6.03;;;18.40;54.50;;;;;;5075974;28;20478;-74
2021/05/11 06:41:30;;;;;;;8.93;5.97;;;18.50;54.20;;;;;;5074006;28;20437;-74
2021/05/11 06:44:02;;;;;;;7.33;5.57;;;18.50;53.00;;;;;;5063324;28;20781;-77
2021/05/11 06:47:33;;;;;;;6.10;5.20;;;18.50;52.60;;;;;;5054222;28;20413;-75
2021/05/11 06:54:37;;;;;;;10.35;5.90;;;17.70;58.90;;;;;;5046980;28;20418;-76
2021/05/11 06:57:04;;;;;;;8.80;5.20;;;17.50;59.20;;;;;;5050172;28;20471;-74
2021/05/11 06:59:29;;;;;;;9.40;5.30;;;17.50;60.10;;;;;;5034790;28;20394;-74
2021/05/11 07:01:55;;;;;;;10.23;5.77;;;17.50;60.10;;;;;;5040652;28;20400;-76
2021/05/11 07:04:21;;;;;;;10.45;6.10;;;17.40;62.60;;;;;;5056803;28;20532;-77
2021/05/11 07:06:46;;;;;;;11.80;6.25;;;17.50;62.30;;;;;;5049936;28;20550;-76
2021/05/11 07:09:16;;;;;;;10.13;5.77;;;17.60;61.30;;;;;;5053985;28;20389;-77
2021/05/11 07:14:07;;;;;;;10.93;6.90;;;18.00;58.90;;;;;;5056395;28;20390;-77
2021/05/11 07:16:33;;;;;;;10.60;6.57;;;18.20;58.00;;;;;;5056956;28;20458;-77
2021/05/11 07:18:58;;;;;;;9.40;6.40;;;18.60;56.50;;;;;;5052224;28;20845;-76
2021/05/11 07:21:24;;;;;;;12.52;6.93;;;18.70;52.30;;;;;;5051296;28;20870;-76
2021/05/11 07:23:50;;;;;;;12.80;6.78;;;18.70;51.20;;;;;;5053922;28;20389;-77
2021/05/11 07:31:31;;;;;;;13.13;7.57;;;19.10;51.40;;;;;;5053802;28;20500;-77
2021/05/11 07:33:58;;;;;;;7.93;6.85;;;19.30;47.70;;;;;;5055183;28;20420;-77
2021/05/11 07:36:24;;;;;;;10.77;7.68;;;19.40;46.90;;;;;;5068518;28;20928;-76
2021/05/11 07:38:50;;;;;;;13.13;7.80;;;19.70;42.70;;;;;;5053198;28;20690;-75
2021/05/11 07:41:17;;;;;;;10.38;8.05;;;19.50;43.70;;;;;;5053333;28;20403;-77
2021/05/11 07:43:48;;;;;;;13.20;7.20;;;19.30;44.80;;;;;;5052768;28;20947;-77
2021/05/11 08:01:56;;;;;;;13.87;7.67;;;19.90;40.90;;;;;;5052520;28;20826;-77
2021/05/11 08:05:19;;;;;;;7.82;5.30;;;19.60;37.00;;;;;;5031028;28;20392;-77
2021/05/11 08:10:52;;;;;;;9.35;5.60;;;19.80;34.60;;;;;;5052871;28;20393;-77
2021/05/11 08:16:07;;;;;;;11.13;7.60;;;20.10;34.30;;;;;;5051970;28;20723;-78
2021/05/11 08:19:03;;;;;;;14.50;7.43;;;20.30;34.30;;;;;;5058036;28;20704;-75
2021/05/11 08:29:26;;;;;;;10.30;6.35;;;20.40;33.10;;;;;;5051477;28;20439;-74
2021/05/11 08:31:52;;;;;;;11.20;6.80;;;20.40;32.40;;;;;;5051923;28;20866;-75
2021/05/11 08:34:17;;;;;;;12.03;7.33;;;19.90;33.70;;;;;;5051297;28;20473;-76
2021/05/11 08:36:43;;;;;;;15.60;6.70;;;19.70;37.50;;;;;;5051272;28;20825;-74
2021/05/11 08:39:09;;;;;;;8.93;5.30;;;19.80;37.90;;;;;;5054646;28;20402;-75
2021/05/11 08:41:34;;;;;;;11.20;5.67;;;20.20;33.10;;;;;;5052300;28;20403;-74
2021/05/11 08:44:00;;;;;;;5.88;4.22;;;20.50;31.30;;;;;;5059173;28;20461;-74
2021/05/11 08:46:25;;;;;;;8.50;4.60;;;20.60;28.40;;;;;;5058003;28;20405;-74
2021/05/11 08:48:52;;;;;;;11.03;5.00;;;20.50;27.60;;;;;;5058212;28;20800;-75
2021/05/11 08:51:28;;;;;;;11.30;5.53;;;20.60;27.90;;;;;;5050430;28;20826;-74
2021/05/11 08:54:18;;;;;;;9.40;5.10;;;20.50;27.80;;;;;;5051077;28;20481;-76
2021/05/11 09:07:57;;;;;;;9.30;5.70;;;21.10;26.70;;;;;;5046802;28;20439;-75
2021/05/11 09:24:54;;;;;;;9.63;5.40;;;21.20;25.90;;;;;;5039664;28;20422;-76
2021/05/11 09:54:37;;;;;;;8.70;6.30;;;21.50;24.30;;;;;;5051802;28;20476;-77
2021/05/11 10:41:59;;;;;;;9.13;6.00;;;19.50;33.90;;;;;;5070415;28;20391;-74
2021/05/11 10:49:23;;;;;;;6.30;5.30;;;20.30;32.50;;;;;;5050472;28;20404;-73
2021/05/11 10:52:04;;;;;;;12.68;5.50;;;20.50;29.80;;;;;;5049999;28;20412;-74
2021/05/11 10:54:36;;;;;;;7.40;5.95;;;20.70;30.40;;;;;;5049757;28;20405;-73
2021/05/11 10:57:22;;;;;;;11.47;5.47;;;20.90;29.70;;;;;;5061767;28;20400;-73
2021/05/11 10:59:55;;;;;;;13.32;7.10;;;21.30;26.50;;;;;;5062142;28;20447;-74
2021/05/11 11:05:04;;;;;;;8.27;5.70;;;21.70;25.00;;;;;;5050353;28;20483;-73
2021/05/11 11:07:35;;;;;;;7.50;5.82;;;21.60;25.00;;;;;;5050158;28;20401;-74
2021/05/11 11:10:04;;;;;;;9.80;6.30;;;21.60;25.10;;;;;;5049611;28;20456;-74
2021/05/11 11:12:50;;;;;;;8.20;6.00;;;21.60;26.00;;;;;;5049922;28;20413;-74
2021/05/11 11:15:18;;;;;;;9.80;5.65;;;21.90;24.80;;;;;;5053371;28;20392;-74
2021/05/11 11:17:50;;;;;;;10.98;6.55;;;22.20;22.90;;;;;;5054220;28;20796;-72
2021/05/11 11:20:18;;;;;;;9.45;6.10;;;21.90;23.90;;;;;;5054033;28;20385;-74
2021/05/11 11:25:41;;;;;;;8.43;6.50;;;21.30;25.60;;;;;;5053901;28;20416;-72
2021/05/11 11:28:07;;;;;;;8.73;6.60;;;21.00;26.90;;;;;;5053486;28;20405;-72
2021/05/11 11:30:32;;;;;;;9.43;6.63;;;20.80;27.60;;;;;;5053518;28;20825;-74
2021/05/11 11:33:02;;;;;;;7.50;6.30;;;20.60;27.90;;;;;;5053280;28;20410;-73
2021/05/11 11:35:31;;;;;;;7.45;6.40;;;20.40;28.00;;;;;;5053637;28;20427;-74
2021/05/11 11:37:57;;;;;;;8.87;6.50;;;20.60;27.40;;;;;;5053676;28;20870;-74
2021/05/11 11:40:23;;;;;;;13.27;6.27;;;20.80;27.70;;;;;;5053923;28;20389;-74
2021/05/11 11:42:49;;;;;;;12.00;6.35;;;20.70;28.50;;;;;;5051856;28;21000;-73
2021/05/11 11:45:21;;;;;;;6.07;4.90;;;20.40;27.70;;;;;;5054852;28;20492;-74
2021/05/11 11:47:55;;;;;;;10.02;4.90;;;20.30;27.70;;;;;;5054078;28;20817;-75
2021/05/11 11:50:21;;;;;;;9.20;6.78;;;20.30;27.40;;;;;;5052636;28;20440;-74
2021/05/11 11:53:01;;;;;;;9.35;5.70;;;20.10;27.90;;;;;;5053927;28;20490;-74
2021/05/11 11:58:05;;;;;;;8.95;6.80;;;19.90;30.50;;;;;;5053098;28;20786;-76
2021/05/11 12:00:32;;;;;;;12.02;7.68;;;19.80;32.70;;;;;;5052640;28;20381;-75
2021/05/11 12:03:04;;;;;;;9.88;7.22;;;19.60;33.20;;;;;;5052895;28;20973;-74
2021/05/11 12:05:35;;;;;;;12.30;7.18;;;19.60;33.60;;;;;;5052735;28;20728;-74
2021/05/11 12:08:20;;;;;;;12.57;7.40;;;19.70;34.10;;;;;;5052980;28;20414;-75
2021/05/11 12:11:12;;;;;;;11.90;8.43;;;19.50;34.90;;;;;;5053622;28;20766;-75
2021/05/11 12:13:39;;;;;;;12.07;8.27;;;19.40;37.20;;;;;;5050397;28;20469;-73
2021/05/11 12:16:19;;;;;;;13.43;8.35;;;19.20;38.60;;;;;;5055785;28;20401;-73
2021/05/11 12:21:29;;;;;;;14.20;8.88;;;19.20;39.90;;;;;;5053068;28;20750;-73
2021/05/11 12:24:09;;;;;;;14.90;8.52;;;19.00;42.30;;;;;;5051525;28;20394;-74
2021/05/11 12:26:36;;;;;;;12.15;8.80;;;18.80;44.20;;;;;;5052161;28;20405;-76
2021/05/11 12:29:23;;;;;;;13.88;8.90;;;18.80;42.30;;;;;;5053216;28;20468;-75
2021/05/11 12:31:50;;;;;;;12.77;8.68;;;18.90;41.20;;;;;;5052141;28;20390;-76
2021/05/11 12:34:24;;;;;;;11.95;8.20;;;19.00;41.70;;;;;;5052040;28;20385;-74
2021/05/11 12:37:00;;;;;;;10.80;7.80;;;18.90;40.40;;;;;;5052777;28;20397;-73
2021/05/11 12:39:41;;;;;;;15.40;8.80;;;18.90;41.20;;;;;;5051891;28;20401;-74
2021/05/11 12:42:25;;;;;;;10.43;8.23;;;18.80;42.30;;;;;;5052288;28;20416;-75
2021/05/11 12:45:05;;;;;;;9.52;7.88;;;18.80;40.70;;;;;;5052104;28;20424;-75
2021/05/11 12:47:52;;;;;;;12.88;7.90;;;19.20;38.10;;;;;;5051964;28;20497;-75
2021/05/11 12:50:22;;;;;;;13.65;8.40;;;19.50;35.70;;;;;;5051990;28;20789;-75
2021/05/11 12:52:50;;;;;;;12.50;9.70;;;19.50;37.60;;;;;;5052357;28;20429;-76
2021/05/11 12:56:27;;;;;;;13.50;9.10;;;19.40;38.50;;;;;;5055285;28;20528;-75
2021/05/11 13:01:07;;;;;;;16.98;10.73;;;19.00;41.00;;;;;;5053619;28;20482;-75
2021/05/11 13:04:05;;;;;;;14.30;10.63;;;17.90;49.40;;;;;;5054470;28;20374;-75
2021/05/11 13:09:38;;;;;;;14.37;8.60;;;16.90;56.70;;;;;;5050006;28;20440;-75
2021/05/11 13:26:02;;;;;;;13.07;10.25;;;16.80;55.10;;;;;;5050931;28;20843;-73
2021/05/11 13:28:45;;;;;;;15.10;10.77;;;16.90;55.40;;;;;;5041120;28;20460;-76
2021/05/11 13:31:37;;;;;;;14.60;10.40;;;17.10;56.10;;;;;;5050693;28;20397;-78
2021/05/11 13:36:25;;;;;;;12.77;11.30;;;16.90;58.20;;;;;;5050864;28;20912;-77
2021/05/11 13:38:50;;;;;;;15.20;10.87;;;16.70;62.20;;;;;;5052842;28;20385;-76
2021/05/11 13:41:16;;;;;;;17.00;11.20;;;16.60;63.70;;;;;;5052184;28;20393;-77
2021/05/11 13:43:42;;;;;;;16.83;12.20;;;16.50;66.00;;;;;;5051802;28;20727;-77
2021/05/11 13:46:07;;;;;;;18.60;12.55;;;16.60;65.90;;;;;;5052386;28;20389;-77
2021/05/11 13:48:38;;;;;;;16.27;12.27;;;16.70;66.20;;;;;;5053597;28;20427;-78
2021/05/11 13:51:10;;;;;;;21.37;13.63;;;16.70;66.40;;;;;;5054491;28;20425;-78
2021/05/11 13:53:38;;;;;;;19.50;14.85;;;16.50;67.60;;;;;;5056852;28;20387;-77
2021/05/11 13:56:14;;;;;;;21.75;15.25;;;16.50;69.30;;;;;;5056087;28;20388;-77
2021/05/11 14:04:13;;;;;;;25.40;17.00;;;16.60;66.10;;;;;;5043197;28;20519;-77
2021/05/11 14:06:39;;;;;;;21.83;15.10;;;16.80;65.80;;;;;;5054779;28;20405;-77
2021/05/11 14:09:06;;;;;;;20.40;16.30;;;16.90;62.80;;;;;;5055430;28;20385;-75
2021/05/11 14:11:33;;;;;;;19.13;13.60;;;17.10;60.80;;;;;;5053602;28;20392;-77
2021/05/11 14:13:59;;;;;;;24.25;13.63;;;17.30;59.60;;;;;;5054166;28;20392;-77
2021/05/11 14:16:25;;;;;;;19.80;15.52;;;17.20;55.80;;;;;;5055096;28;20734;-76
2021/05/11 14:18:51;;;;;;;20.23;14.13;;;17.10;59.20;;;;;;5053065;28;20388;-77
2021/05/11 14:21:16;;;;;;;20.98;14.38;;;17.20;59.50;;;;;;5052936;28;20381;-76
2021/05/11 14:23:42;;;;;;;19.67;14.45;;;17.20;57.90;;;;;;5053830;28;20456;-77
2021/05/11 14:26:07;;;;;;;20.60;13.87;;;17.10;58.70;;;;;;5054383;28;20459;-76
2021/05/11 14:28:33;;;;;;;28.90;16.20;;;17.00;60.00;;;;;;5053558;28;20391;-77
2021/05/11 14:31:01;;;;;;;23.50;15.00;;;16.90;60.70;;;;;;5051941;28;20501;-76
2021/05/11 14:33:27;;;;;;;25.35;15.88;;;17.10;59.70;;;;;;5054818;28;20377;-76
2021/05/11 14:35:52;;;;;;;26.20;15.33;;;17.00;61.00;;;;;;5053661;28;20410;-76
2021/05/11 14:38:18;;;;;;;23.57;15.50;;;17.00;61.50;;;;;;5055846;28;20854;-76
2021/05/11 14:40:43;;;;;;;30.50;16.77;;;16.90;60.40;;;;;;5054206;28;20393;-76
2021/05/11 14:43:09;;;;;;;25.65;17.08;;;16.80;64.30;;;;;;5053517;28;20431;-75
2021/05/11 14:45:35;;;;;;;29.52;17.02;;;16.70;66.60;;;;;;5053143;28;20413;-78
2021/05/11 14:48:00;;;;;;;27.70;18.10;;;16.60;68.70;;;;;;5052248;28;20398;-77
2021/05/11 14:50:26;;;;;;;81.43;22.60;;;16.60;66.10;;;;;;5054637;28;20397;-77
2021/05/11 14:52:57;;;;;;;30.67;18.53;;;16.80;67.50;;;;;;5054997;28;20727;-77
2021/05/11 14:55:24;;;;;;;28.63;16.85;;;16.90;66.10;;;;;;5034597;28;20820;-76
2021/05/11 14:57:54;;;;;;;27.00;16.60;;;16.80;64.10;;;;;;5035728;28;20390;-77
2021/05/11 15:00:20;;;;;;;30.30;17.25;;;16.90;65.60;;;;;;5047718;28;20420;-77
2021/05/11 15:02:46;;;;;;;25.17;17.17;;;16.90;62.90;;;;;;5055787;28;20389;-77
2021/05/11 15:05:12;;;;;;;26.10;16.90;;;16.90;62.50;;;;;;5057016;28;20498;-77
2021/05/11 15:07:38;;;;;;;33.47;20.08;;;17.00;62.90;;;;;;5075272;28;20415;-78
2021/05/11 15:10:04;;;;;;;25.53;16.80;;;17.00;63.00;;;;;;5066619;28;20402;-77
2021/05/11 15:12:30;;;;;;;21.38;14.93;;;17.00;62.40;;;;;;5068020;28;20494;-77
2021/05/11 15:14:56;;;;;;;24.33;15.40;;;17.00;63.50;;;;;;5069984;28;20895;-76
2021/05/11 15:19:56;;;;;;;29.37;18.27;;;17.10;62.10;;;;;;5065654;28;20891;-77
2021/05/11 15:22:22;;;;;;;24.40;17.33;;;17.20;61.20;;;;;;5076797;28;20392;-77
2021/05/11 15:24:50;;;;;;;22.08;16.33;;;17.40;58.50;;;;;;5075251;28;20411;-76
2021/05/11 15:27:16;;;;;;;30.10;18.20;;;17.40;57.60;;;;;;5071991;28;20439;-77
2021/05/11 15:29:42;;;;;;;30.35;20.27;;;17.40;58.00;;;;;;5074152;28;20406;-76
2021/05/11 15:32:35;;;;;;;34.63;17.97;;;17.40;58.30;;;;;;5076437;28;20510;-75
2021/05/11 15:35:01;;;;;;;26.05;16.50;;;17.50;56.80;;;;;;5061540;28;20411;-74
2021/05/11 15:37:27;;;;;;;27.70;18.42;;;17.60;57.10;;;;;;5065685;28;20504;-76
2021/05/11 15:39:52;;;;;;;22.98;17.15;;;17.50;56.20;;;;;;5063099;28;20844;-75
2021/05/11 15:42:18;;;;;;;21.40;16.53;;;17.40;57.10;;;;;;5043758;28;20387;-76
2021/05/11 15:44:43;;;;;;;25.10;17.17;;;17.50;56.80;;;;;;5065913;28;20399;-76
2021/05/11 15:47:09;;;;;;;23.10;16.48;;;17.50;55.30;;;;;;5075047;28;20417;-77
2021/05/11 15:49:34;;;;;;;21.20;16.38;;;17.40;56.00;;;;;;5042257;28;20449;-76
2021/05/11 15:52:00;;;;;;;24.47;17.03;;;17.40;56.90;;;;;;5038892;28;20446;-75
2021/05/11 15:54:26;;;;;;;28.13;16.50;;;17.40;57.30;;;;;;5037734;28;20564;-76
2021/05/11 15:56:51;;;;;;;37.50;21.42;;;17.30;58.50;;;;;;5048920;28;20464;-76
2021/05/11 15:59:17;;;;;;;26.85;19.05;;;17.20;59.40;;;;;;5070525;28;20385;-75
2021/05/11 16:01:43;;;;;;;23.10;16.33;;;17.20;61.60;;;;;;5053823;28;20513;-75
2021/05/11 16:04:09;;;;;;;23.90;17.02;;;17.30;59.60;;;;;;5058256;28;20403;-75
2021/05/11 16:06:34;;;;;;;25.98;17.52;;;17.30;59.60;;;;;;5064890;28;20406;-76
2021/05/11 16:09:00;;;;;;;24.83;18.33;;;17.30;57.90;;;;;;5065395;28;20471;-76
2021/05/11 16:11:25;;;;;;;27.97;18.13;;;17.10;59.20;;;;;;5072930;28;20384;-72
2021/05/11 16:13:51;;;;;;;28.13;18.77;;;17.10;60.10;;;;;;5052899;28;20431;-75
2021/05/11 16:16:17;;;;;;;28.10;18.52;;;17.00;60.70;;;;;;5055054;28;20420;-77
2021/05/11 16:18:42;;;;;;;23.38;18.65;;;16.90;62.80;;;;;;5070097;28;20405;-77
2021/05/11 16:21:08;;;;;;;30.57;19.60;;;16.80;60.40;;;;;;5065431;28;20400;-77
2021/05/11 16:23:33;;;;;;;26.43;18.87;;;16.90;61.50;;;;;;5067039;28;20430;-78
2021/05/11 16:25:59;;;;;;;29.23;19.52;;;17.00;58.60;;;;;;5062925;28;20437;-75
2021/05/11 16:28:24;;;;;;;23.83;18.63;;;17.00;57.10;;;;;;5070711;28;20429;-76
2021/05/11 16:30:50;;;;;;;24.47;16.73;;;17.10;56.70;;;;;;5070698;28;20744;-75
2021/05/11 16:33:16;;;;;;;26.60;16.97;;;17.10;54.20;;;;;;5060822;28;20389;-75
2021/05/11 16:35:42;;;;;;;24.40;15.60;;;17.00;55.10;;;;;;5059958;28;20429;-77
2021/05/11 16:38:08;;;;;;;21.25;16.25;;;17.10;56.00;;;;;;5052110;28;20396;-76
2021/05/11 16:40:35;;;;;;;20.03;14.83;;;17.00;55.20;;;;;;5056117;28;20403;-75
2021/05/11 16:43:00;;;;;;;18.15;13.70;;;17.00;54.50;;;;;;5068381;28;20407;-76
2021/05/11 16:45:26;;;;;;;19.77;14.00;;;17.00;53.50;;;;;;5069149;28;20395;-76